航空気象通報

ウインドサーファーのための航空気象通報による風予報です。

5/30-6/1の航空気象通報

2017年05月31日 00時48分39秒 | TAF
羽田空港
TAF RJTT 301105Z 3012/3118 20010KT 9999 FEW008 SCT015
BECMG 3103/3106 18020KT
BECMG 3115/3118 18010KT
日本時間30日21時-31日12時:200度から10ノットの風
12-15時:風が変化
15-24時:180度から20ノットの風
1日00-03時:風が変化
03時:180度から10ノットの風


静岡空港
TAF RJNS 301107Z 3012/3118 26006KT 9999 FEW015
BECMG 3015/3017 FEW005 BKN008
TEMPO 3018/3021 4000 BR FEW002 BKN004
BECMG 3022/3100 19010KT FEW010 SCT020
BECMG 3109/3112 34004KT
日本時間30日21時-31日07時:260度から6ノットの風
07-09時:風が変化
09-18時:190度から10ノットの風
18-21時:風が変化
21時-1日03時:340度から4ノットの風
、31日00-02時の後、
31日07-09時の後、

福岡空港
TAF RJFF 301105Z 3012/3118 15005KT 9999 FEW030
BECMG 3100/3103 33010KT
BECMG 3109/3112 13005KT
日本時間30日21時-31日09時:150度から5ノットの風
09-12時:風が変化
12-18時:330度から10ノットの風
18-21時:風が変化
21時-1日03時:130度から5ノットの風


那覇空港
TAF ROAH 301109Z 3012/3118 11005KT 9999 FEW015 BKN035
BECMG 3021/3023 01007KT
TEMPO 3022/3106 4000 SHRA FEW005 BKN008 FEW020CB
BECMG 3109/3112 24005KT
日本時間30日21時-31日06時:110度から5ノットの風
06-08時:風が変化
08-18時:010度から7ノットの風
18-21時:風が変化
21時-1日03時:240度から5ノットの風

但し、30日07-15時の間:ときどき

石垣空港
TAF ROIG 301113Z 3012/3118 16005KT 9999 FEW008 BKN015
TEMPO 3015/3100 2000 +TSRA FEW005 BKN008 SCT020CB
BECMG 3017/3019 25010KT
BECMG 3021/3023 34005KT
日本時間30日21時-31日02時:160度から5ノットの風
02-04時:風が変化
04-06時:250度から10ノットの風
06-08時:風が変化
08時-1日03時:340度から5ノットの風

但し、31日00-09時の間:ときどき

マウイのカフルイ空港
PHOG 301125Z 3012/3112 14005KT P6SM FEW050
FM302000 05014G22KT P6SM FEW030 SCT050
FM310400 05010KT P6SM VCSH FEW030 SCT050
FM310700 06006KT P6SM VCSH FEW030 SCT050 AMD LTD TO VIS AND WIND TIL 301600
ハワイ時間30日02-10時:140度から5ノットの風
10-18時:050度から14ノット、突風22ノット
18-21時:050度から10ノットの風
21時-31日02時:060度から6ノットの風


サイパン空港
TAF PGSN 301139Z 3012/3112 10008KT P6SM VCSH SCT020 SCT100
マリアナ時間30日22時-31日22時:100度から8ノットの風

コメント
この記事をはてなブックマークに追加

5/29-5/31の航空気象通報

2017年05月29日 22時26分38秒 | TAF
羽田空港
TAF RJTT 291107Z 2912/3018 19018KT 9999 FEW030
BECMG 2917/2919 25004KT
BECMG 2921/2923 17006KT
BECMG 3000/3003 17018KT
BECMG 3015/3018 20008KT
日本時間29日21時-30日02時:190度から18ノットの風
02-04時:風が変化
04-06時:250度から4ノットの風
06-08時:風が変化
08-09時:170度から6ノットの風
09-12時:風が変化
12-24時:170度から18ノットの風
31日00-03時:風が変化
03時:200度から8ノットの風


静岡空港
TAF RJNS 291105Z 2912/3018 27005KT 9999 FEW010 SCT020
TEMPO 2914/2918 FEW005 BKN008
BECMG 3003/3006 24015KT
BECMG 3012/3015 28005KT
TEMPO 3015/3018 FEW005 BKN008
日本時間29日21時-30日12時:270度から5ノットの風
12-15時:風が変化
15-21時:240度から15ノットの風
21-24時:風が変化
31日00-03時:280度から5ノットの風

但し、29日23時-30日03時の間:ときどき

福岡空港
TAF RJFF 291107Z 2912/3018 05004KT 9999 FEW040
BECMG 2912/2914 14007KT
BECMG 3000/3003 32010KT
BECMG 3012/3015 14004KT
日本時間29日21時:050度から4ノットの風
21-23時:風が変化
23時-30日09時:140度から7ノットの風
09-12時:風が変化
12-21時:320度から10ノットの風
21-24時:風が変化
31日00-03時:140度から4ノットの風


那覇空港
TAF ROAH 291105Z 2912/3018 07008KT 9999 FEW010 BKN020
BECMG 3003/3006 11006KT
TEMPO 3015/3018 FEW005 BKN008
日本時間29日21時-30日12時:070度から8ノットの風
12-15時:風が変化
15時-31日03時:110度から6ノットの風


石垣空港
TAF ROIG 291108Z 2912/3018 06008KT 9999 FEW015 BKN025
BECMG 3009/3012 15005KT
TEMPO 3012/3015 4000 SHRA FEW005 BKN008
日本時間29日21時-30日18時:060度から8ノットの風
18-21時:風が変化
21時-31日03時:150度から5ノットの風

但し、30日21-24時の間:ときどき

マウイのカフルイ空港
PHOG 291122Z 2912/3012 14005KT P6SM FEW030 FEW050
FM292000 02011KT P6SM FEW030 SCT050
FM300500 05007KT P6SM FEW030 SCT050 AMD LTD TO VIS AND WIND TIL 291600
ハワイ時間29日02-10時:140度から5ノットの風
10-19時:020度から11ノットの風
19時-30日02時:050度から7ノットの風


サイパン空港
TAF PGSN 221129Z 2212/2312 11004KT P6SM SCT024
FM230000 09011KT P6SM SCT020
マリアナ時間22日22時-23日10時:110度から4ノットの風
10-22時:090度から11ノットの風

コメント
この記事をはてなブックマークに追加

5/28-5/30の航空気象通報

2017年05月28日 23時23分35秒 | TAF
羽田空港
TAF RJTT 281105Z 2812/2918 20008KT 9999 FEW030 SCT050
BECMG 2814/2816 34004KT
BECMG 2822/2900 12008KT
BECMG 2903/2906 18016KT
BECMG 2915/2918 26006KT
日本時間28日21-23時:200度から8ノットの風
23時-29日01時:風が変化
01-07時:340度から4ノットの風
07-09時:風が変化
09-12時:120度から8ノットの風
12-15時:風が変化
15-24時:180度から16ノットの風
21-24時:風が変化
30日00-03時:260度から6ノットの風


静岡空港
TAF RJNS 281105Z 2812/2918 28005KT 9999 FEW030
BECMG 2900/2903 16008KT
BECMG 2906/2909 27008KT
日本時間28日21時-29日09時:280度から5ノットの風
09-12時:風が変化
12-15時:160度から8ノットの風
15-18時:風が変化
18時-30日03時:270度から8ノットの風


福岡空港
TAF RJFF 281106Z 2812/2918 36005KT CAVOK
BECMG 2812/2814 15010KT
BECMG 2900/2903 30010KT
BECMG 2909/2912 15006KT
日本時間28日21時:360度から5ノットの風
21-23時:風が変化
23時-29日09時:150度から10ノットの風
09-12時:風が変化
12-18時:300度から10ノットの風
18-21時:風が変化
21時-30日03時:150度から6ノットの風


那覇空港
TAF ROAH 281115Z 2812/2918 10008KT 9999 FEW008 BKN015
BECMG 2818/2820 07010KT
TEMPO 2818/2900 4000 RA
日本時間28日21時-30日03時:100度から86ノットの風
03-05時:風が変化
05時-30日03時:070度から10ノットの風
但し、28日03-05時の間:ときどき

石垣空港
TAF ROIG 281106Z 2812/2918 06016KT 9999 FEW010 BKN020
日本時間28日21時-30日03時:060度から16ノットの風


マウイのカフルイ空港
PHOG 281120Z 2812/2912 13005KT P6SM VCSH SCT050
FM282000 03011KT P6SM FEW030 SCT050
FM290400 05007KT P6SM FEW030 SCT050 AMD LTD TO VIS AND WIND TIL 281600
ハワイ時間28日02-10時:130度から5ノットの風
10-18時:030度から11ノットの風
18時-29日02時:050度から7ノットの風


サイパン空港
TAF PGSN 281120Z 2812/2912 09007KT P6SM VCSH SCT020 SCT040 BKN110
マリアナ時間28日22時-29日22時:090度から7ノットの風
コメント
この記事をはてなブックマークに追加

5/27-5/29の航空気象通報

2017年05月28日 00時35分14秒 | TAF
羽田空港
TAF RJTT 271105Z 2712/2818 02012KT 9999 FEW015 BKN030
BECMG 2800/2803 12008KT
BECMG 2803/2806 18014KT
BECMG 2812/2815 34008KT
日本時間27日21時-28日09時:020度から12ノットの風
09-12時:風が変化
12時:120度から8ノットの風
12-15時:風が変化
15-21時:180度から14ノットの風
21-24時:風が変化
29日00-03時:340度から8ノットの風


静岡空港
TAF RJNS 271105Z 2712/2818 27012KT 9999 FEW030
TEMPO 2712/2713 27020G30KT
BECMG 2722/2800 16010KT
BECMG 2806/2809 30004KT
日本時間27日21時-28日07時:270度から12ノットの風
但し、27日21-22時の間:ときどき270度から20ノット、突風30ノット
07-09時:風が変化
09-15時:160度から10ノットの風
15-18時:風が変化
18時-29日03時:300度から4ノットの風


福岡空港
TAF RJFF 271107Z 2712/2818 34005KT 9999 FEW040
BECMG 2712/2714 15004KT
BECMG 2800/2803 32011KT
BECMG 2812/2815 14005KT
日本時間27日21時:340度から5ノットの風
21-23時:風が変化
23時-28日09時:150度から4ノットの風
09-12時:風が変化
12-21時:320度から11ノットの風
21-24時:風が変化
29日00-03時:140度から5ノットの風


那覇空港
TAF ROAH 271105Z 2712/2818 06006KT 9999 FEW015 BKN025
TEMPO 2803/2806 4000 RA FEW005 BKN008
日本時間27日21時-29日03時:060度から6ノットの風

但し、28日12-15時の間:ときどき

石垣空港
TAF ROIG 271112Z 2712/2818 06018KT 9999 FEW010 BKN020
TEMPO 2719/2803 4000 RA FEW005 BKN008
日本時間27日21時-29日03時:060度から18ノットの風

但し、28日04-12時の間:ときどき

マウイのカフルイ空港
PHOG 271124Z 2712/2812 VRB03KT P6SM FEW025
FM272100 02011G17KT P6SM FEW030 SCT060
FM280400 03008KT P6SM SCT025 SCT060 AMD LTD TO VIS AND WIND TIL 271600
ハワイ時間27日02-11時:風向不定3ノットの風
11-18時:020度から11ノット、突風17ノット
18時-28日02時:030度から8ノットの風


サイパン空港
TAF PGSN 261120Z 2612/2712 09011KT P6SM VCSH SCT025
マリアナ時間27日22時-28日22時:090度から11ノットの風

コメント
この記事をはてなブックマークに追加

5/26-5/28の航空気象通報

2017年05月26日 21時35分20秒 | TAF
羽田空港
TAF RJTT 261105Z 2612/2718 08008KT 8000 FEW008 BKN015
TEMPO 2618/2621 4000 BR FEW005 BKN008
BECMG 2700/2703 16012KT
BECMG 2712/2715 02010KT
TEMPO 2512/2518 4000 -SHRA BR FEW005 BKN008
日本時間26日21時-27日09時:080度から8ノットの風
09-12時:風が変化
12-21時:160度から12ノットの風
21-24時:風が変化
28日00-03時:020度から10ノットの風


静岡空港
TAF RJNS 261105Z 2612/2718 16004KT 9999 FEW030
TEMPO 2612/2618 3000 -SHRA BR FEW003 BKN005
BECMG 2616/2618 26010KT
BECMG 2706/2709 27020KT
日本時間26日21時-27日01時:160度から4ノットの風
01-03時:風が変化
03-15時:260度から10ノットの風
15-18時:風が変化
18時-28日03時:270度から20ノットの風

但し、26日21時-27日03時の間:ときどき

福岡空港
TAF RJFF 261105Z 2612/2718 02003KT 9999 FEW035
BECMG 2612/2614 15005KT
BECMG 2700/2703 32012KT
BECMG 2712/2715 15003KT
日本時間26日21時:020度から3ノットの風
21-23時:風が変化
23時-27日09時:150度から5ノットの風
09-12時:風が変化
12-21時:320度から12ノットの風
21-24時:風が変化
28日00-03時:150度から3ノットの風


那覇空港
TAF ROAH 261107Z 2612/2718 03005KT 9999 FEW020
日本時間26日21時-28日03時:030度から5ノットの風


石垣空港
TAF ROIG 261110Z 2612/2718 06005KT 9999 SCT020 BKN040
BECMG 2703/2706 05015KT
日本時間26日21時-27日12時:060度から5ノットの風
12-15時:風が変化
15時-27日03時:050度から15ノットの風


マウイのカフルイ空港
PHOG 261123Z 2612/2712 04006KT P6SM FEW030 SCT050
FM262000 04014G22KT P6SM FEW035 SCT050
FM270500 04009KT P6SM FEW030 FEW050 AMD LTD TO VIS AND WIND TIL 261600
ハワイ時間26日02-10時:040度から6ノットの風
10-19時:040度から14ノット、突風22ノット
19時-27日02時:040度から9ノットの風


サイパン空港
TAF PGSN 261120Z 2612/2712 09011KT P6SM VCSH SCT025
マリアナ時間26日22時-27日22時:090度から11ノットの風

コメント
この記事をはてなブックマークに追加